sensor_id;sensor_type;location;lat;lon;timestamp;pressure;altitude;pressure_sealevel;temperature;humidity
12358;BME280;6243;51.244;6.774;2023-02-25T00:00:35;149729.19;;;9.00;100.00
12358;BME280;6243;51.244;6.774;2023-02-25T00:03:02;149713.97;;;8.94;100.00
12358;BME280;6243;51.244;6.774;2023-02-25T00:05:28;149715.25;;;8.94;100.00
12358;BME280;6243;51.244;6.774;2023-02-25T00:07:53;149698.72;;;8.88;100.00
12358;BME280;6243;51.244;6.774;2023-02-25T00:10:19;149712.69;;;8.93;100.00
12358;BME280;6243;51.244;6.774;2023-02-25T00:12:45;149713.97;;;8.94;100.00
12358;BME280;6243;51.244;6.774;2023-02-25T00:15:11;149705.06;;;8.90;100.00
12358;BME280;6243;51.244;6.774;2023-02-25T00:17:36;149722.84;;;8.97;100.00
12358;BME280;6243;51.244;6.774;2023-02-25T00:20:04;149722.84;;;8.97;100.00
12358;BME280;6243;51.244;6.774;2023-02-25T00:22:30;149720.34;;;8.96;100.00
12358;BME280;6243;51.244;6.774;2023-02-25T00:24:56;149702.56;;;8.89;100.00
12358;BME280;6243;51.244;6.774;2023-02-25T00:27:23;149720.34;;;8.96;100.00
12358;BME280;6243;51.244;6.774;2023-02-25T00:29:51;149715.25;;;8.94;100.00
12358;BME280;6243;51.244;6.774;2023-02-25T00:32:17;149712.69;;;8.93;100.00
12358;BME280;6243;51.244;6.774;2023-02-25T00:34:42;149710.16;;;8.92;100.00
12358;BME280;6243;51.244;6.774;2023-02-25T00:37:09;149702.56;;;8.89;100.00
12358;BME280;6243;51.244;6.774;2023-02-25T00:39:34;149694.94;;;8.86;100.00
12358;BME280;6243;51.244;6.774;2023-02-25T00:42:00;149698.72;;;8.88;100.00
12358;BME280;6243;51.244;6.774;2023-02-25T00:44:26;149720.34;;;8.96;100.00
12358;BME280;6243;51.244;6.774;2023-02-25T00:46:51;149713.97;;;8.94;100.00
12358;BME280;6243;51.244;6.774;2023-02-25T00:49:17;149672.09;;;8.77;100.00
12358;BME280;6243;51.244;6.774;2023-02-25T00:51:42;149680.94;;;8.81;100.00
12358;BME280;6243;51.244;6.774;2023-02-25T00:54:09;149700.00;;;8.88;100.00
12358;BME280;6243;51.244;6.774;2023-02-25T00:56:35;149692.41;;;8.85;100.00
12358;BME280;6243;51.244;6.774;2023-02-25T00:59:00;149665.75;;;8.75;100.00
12358;BME280;6243;51.244;6.774;2023-02-25T01:01:27;149691.13;;;8.85;100.00
12358;BME280;6243;51.244;6.774;2023-02-25T01:03:54;149669.53;;;8.76;100.00
12358;BME280;6243;51.244;6.774;2023-02-25T01:06:20;149647.97;;;8.68;100.00
12358;BME280;6243;51.244;6.774;2023-02-25T01:08:46;149665.75;;;8.75;100.00
12358;BME280;6243;51.244;6.774;2023-02-25T01:11:15;149692.41;;;8.85;100.00
12358;BME280;6243;51.244;6.774;2023-02-25T01:13:42;149694.94;;;8.86;100.00
12358;BME280;6243;51.244;6.774;2023-02-25T01:16:12;149692.41;;;8.85;100.00
12358;BME280;6243;51.244;6.774;2023-02-25T01:18:38;149692.41;;;8.85;100.00
12358;BME280;6243;51.244;6.774;2023-02-25T01:21:04;149693.66;;;8.86;100.00
12358;BME280;6243;51.244;6.774;2023-02-25T01:23:29;149691.13;;;8.85;100.00
12358;BME280;6243;51.244;6.774;2023-02-25T01:25:55;149683.50;;;8.82;100.00
12358;BME280;6243;51.244;6.774;2023-02-25T01:28:22;149700.00;;;8.88;100.00
12358;BME280;6243;51.244;6.774;2023-02-25T01:30:47;149696.22;;;8.87;100.00
12358;BME280;6243;51.244;6.774;2023-02-25T01:33:13;149675.88;;;8.79;100.00
12358;BME280;6243;51.244;6.774;2023-02-25T01:35:38;149669.53;;;8.76;100.00
12358;BME280;6243;51.244;6.774;2023-02-25T01:38:04;149665.75;;;8.75;100.00
12358;BME280;6243;51.244;6.774;2023-02-25T01:40:29;149636.53;;;8.63;100.00
12358;BME280;6243;51.244;6.774;2023-02-25T01:42:55;149644.19;;;8.66;100.00
12358;BME280;6243;51.244;6.774;2023-02-25T01:45:30;149653.03;;;8.70;100.00
12358;BME280;6243;51.244;6.774;2023-02-25T01:48:00;149631.47;;;8.61;100.00
12358;BME280;6243;51.244;6.774;2023-02-25T01:50:32;149636.53;;;8.63;100.00
12358;BME280;6243;51.244;6.774;2023-02-25T01:52:59;149636.53;;;8.63;100.00
12358;BME280;6243;51.244;6.774;2023-02-25T01:55:27;149613.72;;;8.54;100.00
12358;BME280;6243;51.244;6.774;2023-02-25T01:57:52;149641.63;;;8.65;100.00
12358;BME280;6243;51.244;6.774;2023-02-25T02:00:19;149627.69;;;8.60;100.00
12358;BME280;6243;51.244;6.774;2023-02-25T02:02:47;149639.09;;;8.64;100.00
12358;BME280;6243;51.244;6.774;2023-02-25T02:05:13;149618.78;;;8.56;100.00
12358;BME280;6243;51.244;6.774;2023-02-25T02:07:38;149617.56;;;8.55;100.00
12358;BME280;6243;51.244;6.774;2023-02-25T02:10:04;149621.34;;;8.57;100.00
12358;BME280;6243;51.244;6.774;2023-02-25T02:12:32;149639.09;;;8.64;100.00
12358;BME280;6243;51.244;6.774;2023-02-25T02:15:00;149611.19;;;8.53;100.00
12358;BME280;6243;51.244;6.774;2023-02-25T02:17:31;149599.78;;;8.48;100.00
12358;BME280;6243;51.244;6.774;2023-02-25T02:20:10;149595.94;;;8.47;100.00
12358;BME280;6243;51.244;6.774;2023-02-25T02:22:42;149603.56;;;8.50;100.00
12358;BME280;6243;51.244;6.774;2023-02-25T02:25:43;149609.91;;;8.52;100.00
12358;BME280;6243;51.244;6.774;2023-02-25T02:28:35;149603.56;;;8.50;100.00
12358;BME280;6243;51.244;6.774;2023-02-25T02:31:21;149623.84;;;8.58;100.00
12358;BME280;6243;51.244;6.774;2023-02-25T02:33:53;149628.97;;;8.60;100.00
12358;BME280;6243;51.244;6.774;2023-02-25T02:36:29;149613.72;;;8.54;100.00
12358;BME280;6243;51.244;6.774;2023-02-25T02:39:04;149601.00;;;8.49;100.00
12358;BME280;6243;51.244;6.774;2023-02-25T02:41:34;149607.38;;;8.51;100.00
12358;BME280;6243;51.244;6.774;2023-02-25T02:44:04;149625.13;;;8.58;100.00
12358;BME280;6243;51.244;6.774;2023-02-25T02:46:37;149604.84;;;8.50;100.00
12358;BME280;6243;51.244;6.774;2023-02-25T02:49:09;149589.59;;;8.44;100.00
12358;BME280;6243;51.244;6.774;2023-02-25T02:51:39;149590.88;;;8.45;100.00
12358;BME280;6243;51.244;6.774;2023-02-25T02:54:07;149617.56;;;8.55;100.00
12358;BME280;6243;51.244;6.774;2023-02-25T02:56:35;149615.00;;;8.54;100.00
12358;BME280;6243;51.244;6.774;2023-02-25T02:59:06;149592.16;;;8.45;100.00
12358;BME280;6243;51.244;6.774;2023-02-25T03:01:37;149616.28;;;8.55;100.00
12358;BME280;6243;51.244;6.774;2023-02-25T03:04:07;149595.94;;;8.47;100.00
12358;BME280;6243;51.244;6.774;2023-02-25T03:06:36;149580.75;;;8.41;100.00
12358;BME280;6243;51.244;6.774;2023-02-25T03:09:05;149594.66;;;8.46;100.00
12358;BME280;6243;51.244;6.774;2023-02-25T03:11:32;149578.19;;;8.40;100.00
12358;BME280;6243;51.244;6.774;2023-02-25T03:13:58;149573.13;;;8.38;100.00
12358;BME280;6243;51.244;6.774;2023-02-25T03:16:27;149585.81;;;8.43;100.00
12358;BME280;6243;51.244;6.774;2023-02-25T03:18:59;149583.25;;;8.42;100.00
12358;BME280;6243;51.244;6.774;2023-02-25T03:21:30;149588.38;;;8.44;100.00
12358;BME280;6243;51.244;6.774;2023-02-25T03:24:00;149578.19;;;8.40;100.00
12358;BME280;6243;51.244;6.774;2023-02-25T03:26:28;149606.13;;;8.51;100.00
12358;BME280;6243;51.244;6.774;2023-02-25T03:28:54;149595.94;;;8.47;100.00
12358;BME280;6243;51.244;6.774;2023-02-25T03:31:23;149601.00;;;8.49;100.00
12358;BME280;6243;51.244;6.774;2023-02-25T03:33:53;149580.75;;;8.41;100.00
12358;BME280;6243;51.244;6.774;2023-02-25T03:36:25;149595.94;;;8.47;100.00
12358;BME280;6243;51.244;6.774;2023-02-25T03:38:55;149593.44;;;8.46;100.00
12358;BME280;6243;51.244;6.774;2023-02-25T03:41:24;149588.38;;;8.44;100.00
12358;BME280;6243;51.244;6.774;2023-02-25T03:43:54;149612.44;;;8.53;100.00
12358;BME280;6243;51.244;6.774;2023-02-25T03:46:21;149609.91;;;8.52;100.00
12358;BME280;6243;51.244;6.774;2023-02-25T03:48:47;149569.31;;;8.36;100.00
12358;BME280;6243;51.244;6.774;2023-02-25T03:51:17;149613.72;;;8.54;100.00
12358;BME280;6243;51.244;6.774;2023-02-25T03:53:46;149628.97;;;8.60;100.00
12358;BME280;6243;51.244;6.774;2023-02-25T03:56:12;149617.56;;;8.55;100.00
12358;BME280;6243;51.244;6.774;2023-02-25T03:58:40;149626.41;;;8.59;100.00
12358;BME280;6243;51.244;6.774;2023-02-25T04:01:10;149620.06;;;8.56;100.00
12358;BME280;6243;51.244;6.774;2023-02-25T04:03:37;149598.50;;;8.48;100.00
12358;BME280;6243;51.244;6.774;2023-02-25T04:06:03;149607.38;;;8.51;100.00
12358;BME280;6243;51.244;6.774;2023-02-25T04:08:28;149592.16;;;8.45;100.00
12358;BME280;6243;51.244;6.774;2023-02-25T04:10:55;149612.44;;;8.53;100.00
12358;BME280;6243;51.244;6.774;2023-02-25T04:13:21;149608.66;;;8.52;100.00
12358;BME280;6243;51.244;6.774;2023-02-25T04:15:47;149617.56;;;8.55;100.00
12358;BME280;6243;51.244;6.774;2023-02-25T04:18:13;149598.50;;;8.48;100.00
12358;BME280;6243;51.244;6.774;2023-02-25T04:20:39;149604.84;;;8.50;100.00
12358;BME280;6243;51.244;6.774;2023-02-25T04:23:05;149592.16;;;8.45;100.00
12358;BME280;6243;51.244;6.774;2023-02-25T04:25:31;149593.44;;;8.46;100.00
12358;BME280;6243;51.244;6.774;2023-02-25T04:27:58;149601.00;;;8.49;100.00
12358;BME280;6243;51.244;6.774;2023-02-25T04:30:23;149602.28;;;8.49;100.00
12358;BME280;6243;51.244;6.774;2023-02-25T04:32:49;149609.91;;;8.52;100.00
12358;BME280;6243;51.244;6.774;2023-02-25T04:35:15;149611.19;;;8.53;100.00
12358;BME280;6243;51.244;6.774;2023-02-25T04:37:41;149603.56;;;8.50;100.00
12358;BME280;6243;51.244;6.774;2023-02-25T04:40:12;149588.38;;;8.44;100.00
12358;BME280;6243;51.244;6.774;2023-02-25T04:42:38;149617.56;;;8.55;100.00
12358;BME280;6243;51.244;6.774;2023-02-25T04:45:08;149622.63;;;8.57;100.00
12358;BME280;6243;51.244;6.774;2023-02-25T04:47:34;149620.06;;;8.56;100.00
12358;BME280;6243;51.244;6.774;2023-02-25T04:50:00;149630.19;;;8.61;100.00
12358;BME280;6243;51.244;6.774;2023-02-25T04:52:26;149598.50;;;8.48;100.00
12358;BME280;6243;51.244;6.774;2023-02-25T04:54:52;149615.00;;;8.54;100.00
12358;BME280;6243;51.244;6.774;2023-02-25T04:57:18;149607.38;;;8.51;100.00
12358;BME280;6243;51.244;6.774;2023-02-25T04:59:44;149603.56;;;8.50;100.00
12358;BME280;6243;51.244;6.774;2023-02-25T05:02:11;149620.06;;;8.56;100.00
12358;BME280;6243;51.244;6.774;2023-02-25T05:04:37;149608.66;;;8.52;100.00
12358;BME280;6243;51.244;6.774;2023-02-25T05:07:04;149613.72;;;8.54;100.00
12358;BME280;6243;51.244;6.774;2023-02-25T05:09:30;149616.28;;;8.55;100.00
12358;BME280;6243;51.244;6.774;2023-02-25T05:11:55;149604.84;;;8.50;100.00
12358;BME280;6243;51.244;6.774;2023-02-25T05:14:21;149606.13;;;8.51;100.00
12358;BME280;6243;51.244;6.774;2023-02-25T05:16:47;149601.00;;;8.49;100.00
12358;BME280;6243;51.244;6.774;2023-02-25T05:19:16;149606.13;;;8.51;100.00
12358;BME280;6243;51.244;6.774;2023-02-25T05:21:42;149608.66;;;8.52;100.00
12358;BME280;6243;51.244;6.774;2023-02-25T05:24:07;149639.09;;;8.64;100.00
12358;BME280;6243;51.244;6.774;2023-02-25T05:26:33;149631.47;;;8.61;100.00
12358;BME280;6243;51.244;6.774;2023-02-25T05:28:59;149623.84;;;8.58;100.00
12358;BME280;6243;51.244;6.774;2023-02-25T05:31:24;149611.19;;;8.53;100.00
12358;BME280;6243;51.244;6.774;2023-02-25T05:33:51;149627.69;;;8.60;100.00
12358;BME280;6243;51.244;6.774;2023-02-25T05:36:18;149617.56;;;8.55;100.00
12358;BME280;6243;51.244;6.774;2023-02-25T05:38:44;149641.63;;;8.65;100.00
12358;BME280;6243;51.244;6.774;2023-02-25T05:41:10;149639.09;;;8.64;100.00
12358;BME280;6243;51.244;6.774;2023-02-25T05:43:37;149611.19;;;8.53;100.00
12358;BME280;6243;51.244;6.774;2023-02-25T05:46:03;149637.81;;;8.64;100.00
12358;BME280;6243;51.244;6.774;2023-02-25T05:48:29;149636.53;;;8.63;100.00
12358;BME280;6243;51.244;6.774;2023-02-25T05:51:00;149618.78;;;8.56;100.00
12358;BME280;6243;51.244;6.774;2023-02-25T05:53:27;149642.91;;;8.66;100.00
12358;BME280;6243;51.244;6.774;2023-02-25T05:55:53;149637.81;;;8.64;100.00
12358;BME280;6243;51.244;6.774;2023-02-25T05:58:18;149626.41;;;8.59;100.00
12358;BME280;6243;51.244;6.774;2023-02-25T06:00:44;149649.25;;;8.68;100.00
12358;BME280;6243;51.244;6.774;2023-02-25T06:03:10;149656.88;;;8.71;100.00
12358;BME280;6243;51.244;6.774;2023-02-25T06:05:38;149645.47;;;8.67;100.00
12358;BME280;6243;51.244;6.774;2023-02-25T06:08:04;149639.09;;;8.64;100.00
12358;BME280;6243;51.244;6.774;2023-02-25T06:10:31;149593.44;;;8.46;100.00
12358;BME280;6243;51.244;6.774;2023-02-25T06:12:57;149625.13;;;8.58;100.00
12358;BME280;6243;51.244;6.774;2023-02-25T06:15:23;149612.44;;;8.53;100.00
12358;BME280;6243;51.244;6.774;2023-02-25T06:17:48;149631.47;;;8.61;100.00
12358;BME280;6243;51.244;6.774;2023-02-25T06:20:16;149622.63;;;8.57;100.00
12358;BME280;6243;51.244;6.774;2023-02-25T06:22:41;149630.19;;;8.61;100.00
12358;BME280;6243;51.244;6.774;2023-02-25T06:25:08;149630.19;;;8.61;100.00
12358;BME280;6243;51.244;6.774;2023-02-25T06:27:35;149613.72;;;8.54;100.00
12358;BME280;6243;51.244;6.774;2023-02-25T06:30:00;149618.78;;;8.56;100.00
12358;BME280;6243;51.244;6.774;2023-02-25T06:32:26;149594.66;;;8.46;100.00
12358;BME280;6243;51.244;6.774;2023-02-25T06:34:51;149578.19;;;8.40;100.00
12358;BME280;6243;51.244;6.774;2023-02-25T06:37:17;149595.94;;;8.47;100.00
12358;BME280;6243;51.244;6.774;2023-02-25T06:39:42;149616.28;;;8.55;100.00
12358;BME280;6243;51.244;6.774;2023-02-25T06:42:08;149613.72;;;8.54;100.00
12358;BME280;6243;51.244;6.774;2023-02-25T06:44:35;149613.72;;;8.54;100.00
12358;BME280;6243;51.244;6.774;2023-02-25T06:47:00;149602.28;;;8.49;100.00
12358;BME280;6243;51.244;6.774;2023-02-25T06:49:26;149622.63;;;8.57;100.00
12358;BME280;6243;51.244;6.774;2023-02-25T06:51:51;149632.75;;;8.62;100.00
12358;BME280;6243;51.244;6.774;2023-02-25T06:54:17;149618.78;;;8.56;100.00
12358;BME280;6243;51.244;6.774;2023-02-25T06:56:43;149632.75;;;8.62;100.00
12358;BME280;6243;51.244;6.774;2023-02-25T06:59:09;149627.69;;;8.60;100.00
12358;BME280;6243;51.244;6.774;2023-02-25T07:01:36;149637.81;;;8.64;100.00
12358;BME280;6243;51.244;6.774;2023-02-25T07:04:01;149617.56;;;8.55;100.00
12358;BME280;6243;51.244;6.774;2023-02-25T07:06:27;149623.84;;;8.58;100.00
12358;BME280;6243;51.244;6.774;2023-02-25T07:08:53;149636.53;;;8.63;100.00
12358;BME280;6243;51.244;6.774;2023-02-25T07:11:28;149626.41;;;8.59;100.00
12358;BME280;6243;51.244;6.774;2023-02-25T07:13:54;149632.75;;;8.62;100.00
12358;BME280;6243;51.244;6.774;2023-02-25T07:16:20;149649.25;;;8.68;100.00
12358;BME280;6243;51.244;6.774;2023-02-25T07:18:47;149635.28;;;8.63;100.00
12358;BME280;6243;51.244;6.774;2023-02-25T07:21:13;149642.91;;;8.66;100.00
12358;BME280;6243;51.244;6.774;2023-02-25T07:23:38;149647.97;;;8.68;100.00
12358;BME280;6243;51.244;6.774;2023-02-25T07:26:05;149653.03;;;8.70;100.00
12358;BME280;6243;51.244;6.774;2023-02-25T07:28:32;149615.00;;;8.54;100.00
12358;BME280;6243;51.244;6.774;2023-02-25T07:30:59;149647.97;;;8.68;100.00
12358;BME280;6243;51.244;6.774;2023-02-25T07:33:24;149653.03;;;8.70;100.00
12358;BME280;6243;51.244;6.774;2023-02-25T07:35:54;149639.09;;;8.64;100.00
12358;BME280;6243;51.244;6.774;2023-02-25T07:38:20;149689.84;;;8.84;100.00
12358;BME280;6243;51.244;6.774;2023-02-25T07:40:45;149701.28;;;8.89;100.00
12358;BME280;6243;51.244;6.774;2023-02-25T07:43:11;149716.50;;;8.95;100.00
12358;BME280;6243;51.244;6.774;2023-02-25T07:45:36;149691.13;;;8.85;100.00
12358;BME280;6243;51.244;6.774;2023-02-25T07:48:02;149712.69;;;8.93;100.00
12358;BME280;6243;51.244;6.774;2023-02-25T07:50:27;149725.41;;;8.98;100.00
12358;BME280;6243;51.244;6.774;2023-02-25T07:52:54;149722.84;;;8.97;100.00
12358;BME280;6243;51.244;6.774;2023-02-25T07:55:20;149712.69;;;8.93;100.00
12358;BME280;6243;51.244;6.774;2023-02-25T07:57:46;149705.06;;;8.90;100.00
12358;BME280;6243;51.244;6.774;2023-02-25T08:00:12;149669.53;;;8.76;100.00
12358;BME280;6243;51.244;6.774;2023-02-25T08:02:38;149719.06;;;8.96;100.00
12358;BME280;6243;51.244;6.774;2023-02-25T08:05:04;149698.72;;;8.88;100.00
12358;BME280;6243;51.244;6.774;2023-02-25T08:07:30;149727.91;;;8.99;100.00
12358;BME280;6243;51.244;6.774;2023-02-25T08:09:57;149746.97;;;9.07;100.00
12358;BME280;6243;51.244;6.774;2023-02-25T08:12:22;149763.47;;;9.13;100.00
12358;BME280;6243;51.244;6.774;2023-02-25T08:14:48;149768.53;;;9.15;100.00
12358;BME280;6243;51.244;6.774;2023-02-25T08:17:13;149786.31;;;9.22;100.00
12358;BME280;6243;51.244;6.774;2023-02-25T08:19:39;149763.47;;;9.13;100.00
12358;BME280;6243;51.244;6.774;2023-02-25T08:22:04;149776.16;;;9.18;100.00
12358;BME280;6243;51.244;6.774;2023-02-25T08:24:30;149774.91;;;9.18;100.00
12358;BME280;6243;51.244;6.774;2023-02-25T08:26:57;149759.69;;;9.12;100.00
12358;BME280;6243;51.244;6.774;2023-02-25T08:29:23;149773.63;;;9.17;100.00
12358;BME280;6243;51.244;6.774;2023-02-25T08:31:49;149740.63;;;9.04;100.00
12358;BME280;6243;51.244;6.774;2023-02-25T08:34:14;149741.91;;;9.05;100.00
12358;BME280;6243;51.244;6.774;2023-02-25T08:36:40;149753.31;;;9.09;100.00
12358;BME280;6243;51.244;6.774;2023-02-25T08:39:06;149760.97;;;9.12;100.00
12358;BME280;6243;51.244;6.774;2023-02-25T08:41:31;149744.41;;;9.06;100.00
12358;BME280;6243;51.244;6.774;2023-02-25T08:43:58;149773.63;;;9.17;100.00
12358;BME280;6243;51.244;6.774;2023-02-25T08:46:26;149768.53;;;9.15;100.00
12358;BME280;6243;51.244;6.774;2023-02-25T08:48:53;149748.25;;;9.07;100.00
12358;BME280;6243;51.244;6.774;2023-02-25T08:51:19;149735.56;;;9.02;100.00
12358;BME280;6243;51.244;6.774;2023-02-25T08:53:44;149750.75;;;9.08;100.00
12358;BME280;6243;51.244;6.774;2023-02-25T08:56:11;149730.47;;;9.00;100.00
12358;BME280;6243;51.244;6.774;2023-02-25T08:58:38;149738.09;;;9.03;100.00
12358;BME280;6243;51.244;6.774;2023-02-25T09:01:07;149745.69;;;9.06;100.00
12358;BME280;6243;51.244;6.774;2023-02-25T09:03:33;149783.81;;;9.21;100.00
12358;BME280;6243;51.244;6.774;2023-02-25T09:05:58;149763.47;;;9.13;100.00
12358;BME280;6243;51.244;6.774;2023-02-25T09:08:24;149801.59;;;9.28;100.00
12358;BME280;6243;51.244;6.774;2023-02-25T09:10:49;149820.59;;;9.36;100.00
12358;BME280;6243;51.244;6.774;2023-02-25T09:13:15;149774.91;;;9.18;100.00
12358;BME280;6243;51.244;6.774;2023-02-25T09:15:41;149834.59;;;9.42;100.00
12358;BME280;6243;51.244;6.774;2023-02-25T09:18:07;149837.09;;;9.43;100.00
12358;BME280;6243;51.244;6.774;2023-02-25T09:20:33;149870.16;;;9.56;100.00
12358;BME280;6243;51.244;6.774;2023-02-25T09:22:59;149913.31;;;9.73;100.00
12358;BME280;6243;51.244;6.774;2023-02-25T09:25:24;149933.66;;;9.81;100.00
12358;BME280;6243;51.244;6.774;2023-02-25T09:27:50;149955.22;;;9.89;100.00
12358;BME280;6243;51.244;6.774;2023-02-25T09:30:15;149984.44;;;10.01;100.00
12358;BME280;6243;51.244;6.774;2023-02-25T09:32:41;149981.88;;;10.00;100.00
12358;BME280;6243;51.244;6.774;2023-02-25T09:35:08;149992.03;;;10.04;100.00
12358;BME280;6243;51.244;6.774;2023-02-25T09:37:34;149981.88;;;10.00;100.00
12358;BME280;6243;51.244;6.774;2023-02-25T09:39:59;150012.44;;;10.12;100.00
12358;BME280;6243;51.244;6.774;2023-02-25T09:42:30;150022.59;;;10.16;100.00
12358;BME280;6243;51.244;6.774;2023-02-25T09:45:09;150039.09;;;10.23;100.00
12358;BME280;6243;51.244;6.774;2023-02-25T09:47:42;150009.88;;;10.11;100.00
12358;BME280;6243;51.244;6.774;2023-02-25T09:50:14;150059.47;;;10.31;100.00
12358;BME280;6243;51.244;6.774;2023-02-25T09:52:44;150083.63;;;10.40;100.00
12358;BME280;6243;51.244;6.774;2023-02-25T09:55:17;150107.72;;;10.50;100.00
12358;BME280;6243;51.244;6.774;2023-02-25T09:57:50;150111.56;;;10.51;100.00
12358;BME280;6243;51.244;6.774;2023-02-25T10:00:20;150119.16;;;10.54;100.00
12358;BME280;6243;51.244;6.774;2023-02-25T10:02:49;150110.28;;;10.51;100.00
12358;BME280;6243;51.244;6.774;2023-02-25T10:05:24;150097.56;;;10.46;100.00
12358;BME280;6243;51.244;6.774;2023-02-25T10:07:58;150092.50;;;10.44;100.00
12358;BME280;6243;51.244;6.774;2023-02-25T10:10:32;150088.69;;;10.42;100.00
12358;BME280;6243;51.244;6.774;2023-02-25T10:13:12;150063.25;;;10.32;100.00
12358;BME280;6243;51.244;6.774;2023-02-25T10:15:50;149962.81;;;9.92;100.00
12358;BME280;6243;51.244;6.774;2023-02-25T10:18:47;149785.03;;;9.22;100.00
12358;BME280;6243;51.244;6.774;2023-02-25T10:21:22;149680.94;;;8.81;100.00
12358;BME280;6243;51.244;6.774;2023-02-25T10:24:01;149526.13;;;8.19;100.00
12358;BME280;6243;51.244;6.774;2023-02-25T10:26:34;149514.69;;;8.15;100.00
12358;BME280;6243;51.244;6.774;2023-02-25T10:29:04;149475.41;;;7.99;100.00
12358;BME280;6243;51.244;6.774;2023-02-25T10:31:31;149431.03;;;7.81;100.00
12358;BME280;6243;51.244;6.774;2023-02-25T10:33:59;149373.97;;;7.59;100.00
12358;BME280;6243;51.244;6.774;2023-02-25T10:36:30;149333.41;;;7.43;100.00
12358;BME280;6243;51.244;6.774;2023-02-25T10:38:55;149156.00;;;6.72;100.00
12358;BME280;6243;51.244;6.774;2023-02-25T10:41:23;149010.34;;;6.14;100.00
12358;BME280;6243;51.244;6.774;2023-02-25T10:43:49;149025.56;;;6.20;100.00
12358;BME280;6243;51.244;6.774;2023-02-25T10:46:18;149034.41;;;6.24;100.00
12358;BME280;6243;51.244;6.774;2023-02-25T10:48:51;149074.94;;;6.40;100.00
12358;BME280;6243;51.244;6.774;2023-02-25T10:51:17;149087.63;;;6.45;100.00
12358;BME280;6243;51.244;6.774;2023-02-25T10:54:01;149114.19;;;6.56;100.00
12358;BME280;6243;51.244;6.774;2023-02-25T10:56:30;149148.41;;;6.69;100.00
12358;BME280;6243;51.244;6.774;2023-02-25T10:59:00;149190.22;;;6.86;100.00
12358;BME280;6243;51.244;6.774;2023-02-25T11:01:34;149232.03;;;7.02;100.00
12358;BME280;6243;51.244;6.774;2023-02-25T11:04:02;149278.88;;;7.21;100.00
12358;BME280;6243;51.244;6.774;2023-02-25T11:06:30;149301.69;;;7.30;100.00
12358;BME280;6243;51.244;6.774;2023-02-25T11:08:59;149441.16;;;7.85;100.00
12358;BME280;6243;51.244;6.774;2023-02-25T11:11:25;149555.34;;;8.31;100.00
12358;BME280;6243;51.244;6.774;2023-02-25T11:13:59;149640.38;;;8.65;100.00
12358;BME280;6243;51.244;6.774;2023-02-25T11:16:26;149682.22;;;8.81;100.00
12358;BME280;6243;51.244;6.774;2023-02-25T11:18:54;149711.44;;;8.93;100.00
12358;BME280;6243;51.244;6.774;2023-02-25T11:21:28;149726.69;;;8.99;100.00
12358;BME280;6243;51.244;6.774;2023-02-25T11:24:00;149744.41;;;9.06;100.00
12358;BME280;6243;51.244;6.774;2023-02-25T11:26:27;149750.75;;;9.08;100.00
12358;BME280;6243;51.244;6.774;2023-02-25T11:28:53;149735.56;;;9.02;100.00
12358;BME280;6243;51.244;6.774;2023-02-25T11:31:22;149870.16;;;9.56;100.00
12358;BME280;6243;51.244;6.774;2023-02-25T11:33:51;149997.16;;;10.06;100.00
12358;BME280;6243;51.244;6.774;2023-02-25T11:36:20;150040.38;;;10.23;100.00
12358;BME280;6243;51.244;6.774;2023-02-25T11:38:47;150032.75;;;10.20;100.00
12358;BME280;6243;51.244;6.774;2023-02-25T11:41:16;150168.75;;;10.74;100.00
12358;BME280;6243;51.244;6.774;2023-02-25T11:43:44;150262.81;;;11.11;100.00
12358;BME280;6243;51.244;6.774;2023-02-25T11:46:11;150286.97;;;11.21;100.00
12358;BME280;6243;51.244;6.774;2023-02-25T11:48:47;150297.13;;;11.25;100.00
12358;BME280;6243;51.244;6.774;2023-02-25T11:51:21;150309.88;;;11.30;98.90
12358;BME280;6243;51.244;6.774;2023-02-25T11:54:07;150328.97;;;11.37;98.77
12358;BME280;6243;51.244;6.774;2023-02-25T11:56:40;150195.44;;;10.85;90.22
12358;BME280;6243;51.244;6.774;2023-02-25T11:59:18;150167.47;;;10.74;91.20
12358;BME280;6243;51.244;6.774;2023-02-25T12:05:09;150181.47;;;10.79;93.61
12358;BME280;6243;51.244;6.774;2023-02-25T12:08:09;150171.28;;;10.75;97.65
12358;BME280;6243;51.244;6.774;2023-02-25T12:13:59;150168.75;;;10.74;96.70
12358;BME280;6243;51.244;6.774;2023-02-25T12:16:52;150184.00;;;10.80;97.51
12358;BME280;6243;51.244;6.774;2023-02-25T12:25:22;150208.16;;;10.90;95.93
12358;BME280;6243;51.244;6.774;2023-02-25T12:34:15;150210.66;;;10.91;97.25
12358;BME280;6243;51.244;6.774;2023-02-25T12:36:56;150223.41;;;10.96;93.28
12358;BME280;6243;51.244;6.774;2023-02-25T12:42:25;150162.41;;;10.72;87.88
12358;BME280;6243;51.244;6.774;2023-02-25T12:45:02;150013.72;;;10.13;79.16
12358;BME280;6243;51.244;6.774;2023-02-25T12:47:40;149819.31;;;9.36;78.85
12358;BME280;6243;51.244;6.774;2023-02-25T12:50:35;149804.09;;;9.29;83.06
12358;BME280;6243;51.244;6.774;2023-02-25T12:53:28;149743.19;;;9.05;83.70
12358;BME280;6243;51.244;6.774;2023-02-25T12:59:06;149763.47;;;9.13;86.57
12358;BME280;6243;51.244;6.774;2023-02-25T13:01:50;149763.47;;;9.13;86.45
12358;BME280;6243;51.244;6.774;2023-02-25T13:04:49;149734.25;;;9.02;84.06
12358;BME280;6243;51.244;6.774;2023-02-25T13:07:49;149760.97;;;9.12;82.20
12358;BME280;6243;51.244;6.774;2023-02-25T13:10:35;149791.38;;;9.24;84.28
12358;BME280;6243;51.244;6.774;2023-02-25T13:16:14;149810.44;;;9.32;78.53
12358;BME280;6243;51.244;6.774;2023-02-25T13:18:46;149819.31;;;9.36;76.03
12358;BME280;6243;51.244;6.774;2023-02-25T13:21:40;149823.16;;;9.37;75.07
12358;BME280;6243;51.244;6.774;2023-02-25T13:24:29;149767.25;;;9.15;69.51
12358;BME280;6243;51.244;6.774;2023-02-25T13:27:11;149779.97;;;9.20;70.84
12358;BME280;6243;51.244;6.774;2023-02-25T13:29:49;149818.09;;;9.35;71.45
12358;BME280;6243;51.244;6.774;2023-02-25T13:32:27;149816.81;;;9.35;71.58
12358;BME280;6243;51.244;6.774;2023-02-25T13:35:09;149814.25;;;9.34;68.72
12358;BME280;6243;51.244;6.774;2023-02-25T13:37:45;149802.81;;;9.29;67.74